sensor_id;sensor_type;location;lat;lon;timestamp;P1;durP1;ratioP1;P2;durP2;ratioP2
58310;SDS011;45001;52.218;5.154;2022-10-17T00:02:09;4.47;;;1.80;;
58310;SDS011;45001;52.218;5.154;2022-10-17T00:04:34;3.58;;;2.10;;
58310;SDS011;45001;52.218;5.154;2022-10-17T00:07:00;3.20;;;2.13;;
58310;SDS011;45001;52.218;5.154;2022-10-17T00:09:25;4.35;;;2.13;;
58310;SDS011;45001;52.218;5.154;2022-10-17T00:11:50;4.03;;;2.10;;
58310;SDS011;45001;52.218;5.154;2022-10-17T00:14:15;3.60;;;1.90;;
58310;SDS011;45001;52.218;5.154;2022-10-17T00:16:41;3.33;;;2.00;;
58310;SDS011;45001;52.218;5.154;2022-10-17T00:19:06;3.03;;;1.73;;
58310;SDS011;45001;52.218;5.154;2022-10-17T00:21:31;3.30;;;1.85;;
58310;SDS011;45001;52.218;5.154;2022-10-17T00:23:58;3.92;;;2.10;;
58310;SDS011;45001;52.218;5.154;2022-10-17T00:26:24;3.50;;;2.10;;
58310;SDS011;45001;52.218;5.154;2022-10-17T00:28:51;4.25;;;1.90;;
58310;SDS011;45001;52.218;5.154;2022-10-17T00:31:17;5.03;;;2.03;;
58310;SDS011;45001;52.218;5.154;2022-10-17T00:33:45;3.53;;;1.85;;
58310;SDS011;45001;52.218;5.154;2022-10-17T00:36:12;4.07;;;1.83;;
58310;SDS011;45001;52.218;5.154;2022-10-17T00:38:40;3.92;;;2.10;;
58310;SDS011;45001;52.218;5.154;2022-10-17T00:41:07;2.90;;;1.80;;
58310;SDS011;45001;52.218;5.154;2022-10-17T00:46:53;3.47;;;1.80;;
58310;SDS011;45001;52.218;5.154;2022-10-17T00:49:18;3.08;;;1.90;;
58310;SDS011;45001;52.218;5.154;2022-10-17T00:51:46;3.83;;;1.63;;
58310;SDS011;45001;52.218;5.154;2022-10-17T00:54:15;3.92;;;1.88;;
58310;SDS011;45001;52.218;5.154;2022-10-17T00:56:43;3.80;;;1.95;;
58310;SDS011;45001;52.218;5.154;2022-10-17T00:59:10;4.72;;;2.00;;
58310;SDS011;45001;52.218;5.154;2022-10-17T01:01:41;3.25;;;1.70;;
58310;SDS011;45001;52.218;5.154;2022-10-17T01:04:10;3.72;;;1.83;;
58310;SDS011;45001;52.218;5.154;2022-10-17T01:06:36;3.25;;;1.80;;
58310;SDS011;45001;52.218;5.154;2022-10-17T01:09:02;3.40;;;1.80;;
58310;SDS011;45001;52.218;5.154;2022-10-17T01:11:38;4.85;;;1.80;;
58310;SDS011;45001;52.218;5.154;2022-10-17T01:14:41;2.60;;;1.55;;
58310;SDS011;45001;52.218;5.154;2022-10-17T01:22:48;3.65;;;1.70;;
58310;SDS011;45001;52.218;5.154;2022-10-17T01:31:54;4.05;;;1.75;;
58310;SDS011;45001;52.218;5.154;2022-10-17T01:34:38;3.03;;;1.70;;
58310;SDS011;45001;52.218;5.154;2022-10-17T01:37:17;2.63;;;1.65;;
58310;SDS011;45001;52.218;5.154;2022-10-17T01:39:51;2.58;;;1.58;;
58310;SDS011;45001;52.218;5.154;2022-10-17T01:42:24;3.65;;;1.55;;
58310;SDS011;45001;52.218;5.154;2022-10-17T01:45:12;2.90;;;1.40;;
58310;SDS011;45001;52.218;5.154;2022-10-17T01:47:43;3.50;;;1.77;;
58310;SDS011;45001;52.218;5.154;2022-10-17T01:50:16;2.88;;;1.50;;
58310;SDS011;45001;52.218;5.154;2022-10-17T01:52:51;2.20;;;1.40;;
58310;SDS011;45001;52.218;5.154;2022-10-17T01:55:21;3.10;;;1.50;;
58310;SDS011;45001;52.218;5.154;2022-10-17T01:57:55;3.95;;;1.48;;
58310;SDS011;45001;52.218;5.154;2022-10-17T02:00:25;2.38;;;1.48;;
58310;SDS011;45001;52.218;5.154;2022-10-17T02:02:52;2.72;;;1.55;;
58310;SDS011;45001;52.218;5.154;2022-10-17T02:05:23;2.75;;;1.50;;
58310;SDS011;45001;52.218;5.154;2022-10-17T02:08:02;3.85;;;1.80;;
58310;SDS011;45001;52.218;5.154;2022-10-17T02:10:47;3.10;;;1.40;;
58310;SDS011;45001;52.218;5.154;2022-10-17T02:16:33;2.67;;;1.50;;
58310;SDS011;45001;52.218;5.154;2022-10-17T02:19:12;3.28;;;1.80;;
58310;SDS011;45001;52.218;5.154;2022-10-17T02:21:54;1.85;;;1.33;;
58310;SDS011;45001;52.218;5.154;2022-10-17T02:24:28;1.70;;;1.23;;
58310;SDS011;45001;52.218;5.154;2022-10-17T02:27:05;2.72;;;1.65;;
58310;SDS011;45001;52.218;5.154;2022-10-17T02:29:47;1.85;;;1.10;;
58310;SDS011;45001;52.218;5.154;2022-10-17T02:32:22;2.30;;;1.60;;
58310;SDS011;45001;52.218;5.154;2022-10-17T02:34:53;2.25;;;1.55;;
58310;SDS011;45001;52.218;5.154;2022-10-17T02:39:50;2.70;;;1.60;;
58310;SDS011;45001;52.218;5.154;2022-10-17T02:42:18;3.33;;;1.50;;
58310;SDS011;45001;52.218;5.154;2022-10-17T02:44:45;4.90;;;1.50;;
58310;SDS011;45001;52.218;5.154;2022-10-17T02:49:50;2.47;;;1.50;;
58310;SDS011;45001;52.218;5.154;2022-10-17T02:52:20;2.40;;;1.40;;
58310;SDS011;45001;52.218;5.154;2022-10-17T02:55:15;2.70;;;1.23;;
58310;SDS011;45001;52.218;5.154;2022-10-17T02:57:43;2.72;;;1.40;;
58310;SDS011;45001;52.218;5.154;2022-10-17T03:00:14;3.17;;;1.48;;
58310;SDS011;45001;52.218;5.154;2022-10-17T03:02:41;2.67;;;1.48;;
58310;SDS011;45001;52.218;5.154;2022-10-17T03:05:11;1.88;;;1.10;;
58310;SDS011;45001;52.218;5.154;2022-10-17T03:07:38;2.30;;;1.35;;
58310;SDS011;45001;52.218;5.154;2022-10-17T03:10:03;3.22;;;1.42;;
58310;SDS011;45001;52.218;5.154;2022-10-17T03:12:29;2.42;;;1.40;;
58310;SDS011;45001;52.218;5.154;2022-10-17T03:14:54;2.80;;;1.20;;
58310;SDS011;45001;52.218;5.154;2022-10-17T03:17:20;1.95;;;1.25;;
58310;SDS011;45001;52.218;5.154;2022-10-17T03:19:45;1.80;;;1.15;;
58310;SDS011;45001;52.218;5.154;2022-10-17T03:22:10;2.60;;;1.45;;
58310;SDS011;45001;52.218;5.154;2022-10-17T03:24:36;4.13;;;1.63;;
58310;SDS011;45001;52.218;5.154;2022-10-17T03:27:01;2.72;;;1.35;;
58310;SDS011;45001;52.218;5.154;2022-10-17T03:29:26;2.65;;;1.50;;
58310;SDS011;45001;52.218;5.154;2022-10-17T03:31:52;2.50;;;1.20;;
58310;SDS011;45001;52.218;5.154;2022-10-17T03:34:17;2.35;;;1.40;;
58310;SDS011;45001;52.218;5.154;2022-10-17T03:36:43;3.08;;;1.38;;
58310;SDS011;45001;52.218;5.154;2022-10-17T03:39:08;2.47;;;1.50;;
58310;SDS011;45001;52.218;5.154;2022-10-17T03:41:34;1.55;;;1.30;;
58310;SDS011;45001;52.218;5.154;2022-10-17T03:43:59;2.28;;;1.63;;
58310;SDS011;45001;52.218;5.154;2022-10-17T03:46:24;2.65;;;1.58;;
58310;SDS011;45001;52.218;5.154;2022-10-17T03:48:50;2.95;;;1.63;;
58310;SDS011;45001;52.218;5.154;2022-10-17T03:51:15;2.20;;;1.30;;
58310;SDS011;45001;52.218;5.154;2022-10-17T03:53:40;2.97;;;1.50;;
58310;SDS011;45001;52.218;5.154;2022-10-17T03:58:35;2.08;;;1.40;;
58310;SDS011;45001;52.218;5.154;2022-10-17T04:01:04;1.70;;;1.27;;
58310;SDS011;45001;52.218;5.154;2022-10-17T04:03:30;1.67;;;1.20;;
58310;SDS011;45001;52.218;5.154;2022-10-17T04:05:59;2.20;;;1.58;;
58310;SDS011;45001;52.218;5.154;2022-10-17T04:08:25;2.10;;;1.55;;
58310;SDS011;45001;52.218;5.154;2022-10-17T04:10:50;2.20;;;1.25;;
58310;SDS011;45001;52.218;5.154;2022-10-17T04:13:16;1.90;;;1.30;;
58310;SDS011;45001;52.218;5.154;2022-10-17T04:15:41;1.80;;;1.30;;
58310;SDS011;45001;52.218;5.154;2022-10-17T04:18:06;2.78;;;1.20;;
58310;SDS011;45001;52.218;5.154;2022-10-17T04:20:33;2.65;;;1.45;;
58310;SDS011;45001;52.218;5.154;2022-10-17T04:22:59;2.28;;;1.55;;
58310;SDS011;45001;52.218;5.154;2022-10-17T04:25:24;1.77;;;1.25;;
58310;SDS011;45001;52.218;5.154;2022-10-17T04:27:49;2.00;;;1.70;;
58310;SDS011;45001;52.218;5.154;2022-10-17T04:30:15;3.05;;;1.30;;
58310;SDS011;45001;52.218;5.154;2022-10-17T04:32:40;3.40;;;1.70;;
58310;SDS011;45001;52.218;5.154;2022-10-17T04:35:05;2.10;;;1.40;;
58310;SDS011;45001;52.218;5.154;2022-10-17T04:37:31;2.10;;;1.38;;
58310;SDS011;45001;52.218;5.154;2022-10-17T04:39:56;2.03;;;1.35;;
58310;SDS011;45001;52.218;5.154;2022-10-17T04:42:21;2.60;;;1.58;;
58310;SDS011;45001;52.218;5.154;2022-10-17T04:44:47;2.05;;;1.50;;
58310;SDS011;45001;52.218;5.154;2022-10-17T04:47:12;2.92;;;1.60;;
58310;SDS011;45001;52.218;5.154;2022-10-17T04:49:37;1.83;;;1.33;;
58310;SDS011;45001;52.218;5.154;2022-10-17T04:52:03;1.50;;;1.20;;
58310;SDS011;45001;52.218;5.154;2022-10-17T04:54:28;5.05;;;1.77;;
58310;SDS011;45001;52.218;5.154;2022-10-17T04:56:53;2.28;;;1.40;;
58310;SDS011;45001;52.218;5.154;2022-10-17T04:59:19;3.33;;;1.60;;
58310;SDS011;45001;52.218;5.154;2022-10-17T05:01:44;2.40;;;1.50;;
58310;SDS011;45001;52.218;5.154;2022-10-17T05:04:09;2.75;;;1.70;;
58310;SDS011;45001;52.218;5.154;2022-10-17T05:06:35;2.28;;;1.45;;
58310;SDS011;45001;52.218;5.154;2022-10-17T05:09:02;2.88;;;1.85;;
58310;SDS011;45001;52.218;5.154;2022-10-17T05:11:28;2.03;;;1.50;;
58310;SDS011;45001;52.218;5.154;2022-10-17T05:13:55;2.95;;;1.73;;
58310;SDS011;45001;52.218;5.154;2022-10-17T05:16:22;2.92;;;1.67;;
58310;SDS011;45001;52.218;5.154;2022-10-17T05:18:48;2.03;;;1.42;;
58310;SDS011;45001;52.218;5.154;2022-10-17T05:21:15;1.90;;;1.40;;
58310;SDS011;45001;52.218;5.154;2022-10-17T05:23:40;3.08;;;1.67;;
58310;SDS011;45001;52.218;5.154;2022-10-17T05:26:06;2.20;;;1.48;;
58310;SDS011;45001;52.218;5.154;2022-10-17T05:28:31;2.30;;;1.50;;
58310;SDS011;45001;52.218;5.154;2022-10-17T05:30:56;3.65;;;1.75;;
58310;SDS011;45001;52.218;5.154;2022-10-17T05:33:22;2.90;;;1.40;;
58310;SDS011;45001;52.218;5.154;2022-10-17T05:35:47;2.08;;;1.40;;
58310;SDS011;45001;52.218;5.154;2022-10-17T05:38:13;6.25;;;1.70;;
58310;SDS011;45001;52.218;5.154;2022-10-17T05:40:38;2.75;;;1.80;;
58310;SDS011;45001;52.218;5.154;2022-10-17T05:43:03;2.53;;;1.63;;
58310;SDS011;45001;52.218;5.154;2022-10-17T05:45:29;4.25;;;1.60;;
58310;SDS011;45001;52.218;5.154;2022-10-17T05:47:54;2.58;;;1.48;;
58310;SDS011;45001;52.218;5.154;2022-10-17T05:50:19;2.75;;;1.80;;
58310;SDS011;45001;52.218;5.154;2022-10-17T05:52:45;3.10;;;1.70;;
58310;SDS011;45001;52.218;5.154;2022-10-17T05:55:11;2.92;;;1.70;;
58310;SDS011;45001;52.218;5.154;2022-10-17T05:57:36;5.28;;;1.85;;
58310;SDS011;45001;52.218;5.154;2022-10-17T06:00:02;3.70;;;1.80;;
58310;SDS011;45001;52.218;5.154;2022-10-17T06:02:28;2.50;;;1.50;;
58310;SDS011;45001;52.218;5.154;2022-10-17T06:04:54;6.15;;;2.10;;
58310;SDS011;45001;52.218;5.154;2022-10-17T06:07:19;2.72;;;1.73;;
58310;SDS011;45001;52.218;5.154;2022-10-17T06:09:44;3.13;;;1.70;;
58310;SDS011;45001;52.218;5.154;2022-10-17T06:12:09;5.35;;;1.98;;
58310;SDS011;45001;52.218;5.154;2022-10-17T06:14:35;4.80;;;2.05;;
58310;SDS011;45001;52.218;5.154;2022-10-17T06:17:00;5.78;;;1.80;;
58310;SDS011;45001;52.218;5.154;2022-10-17T06:19:25;4.95;;;2.40;;
58310;SDS011;45001;52.218;5.154;2022-10-17T06:21:51;4.75;;;2.13;;
58310;SDS011;45001;52.218;5.154;2022-10-17T06:24:16;3.92;;;2.08;;
58310;SDS011;45001;52.218;5.154;2022-10-17T06:26:41;3.92;;;1.90;;
58310;SDS011;45001;52.218;5.154;2022-10-17T06:29:07;4.32;;;2.13;;
58310;SDS011;45001;52.218;5.154;2022-10-17T06:31:32;4.00;;;2.13;;
58310;SDS011;45001;52.218;5.154;2022-10-17T06:33:58;3.88;;;2.00;;
58310;SDS011;45001;52.218;5.154;2022-10-17T06:36:23;3.90;;;2.38;;
58310;SDS011;45001;52.218;5.154;2022-10-17T06:38:48;4.90;;;2.30;;
58310;SDS011;45001;52.218;5.154;2022-10-17T06:41:14;4.28;;;1.88;;
58310;SDS011;45001;52.218;5.154;2022-10-17T06:43:43;3.85;;;2.05;;
58310;SDS011;45001;52.218;5.154;2022-10-17T06:46:10;2.72;;;1.95;;
58310;SDS011;45001;52.218;5.154;2022-10-17T06:48:37;3.97;;;1.90;;
58310;SDS011;45001;52.218;5.154;2022-10-17T06:51:03;3.00;;;2.05;;
58310;SDS011;45001;52.218;5.154;2022-10-17T06:53:31;4.65;;;2.15;;
58310;SDS011;45001;52.218;5.154;2022-10-17T06:55:58;5.30;;;1.90;;
58310;SDS011;45001;52.218;5.154;2022-10-17T06:58:28;4.78;;;2.28;;
58310;SDS011;45001;52.218;5.154;2022-10-17T07:01:02;4.28;;;1.92;;
58310;SDS011;45001;52.218;5.154;2022-10-17T07:03:30;3.00;;;1.90;;
58310;SDS011;45001;52.218;5.154;2022-10-17T07:05:56;3.65;;;1.92;;
58310;SDS011;45001;52.218;5.154;2022-10-17T07:08:22;4.15;;;1.83;;
58310;SDS011;45001;52.218;5.154;2022-10-17T07:10:47;3.72;;;2.05;;
58310;SDS011;45001;52.218;5.154;2022-10-17T07:13:14;3.60;;;2.28;;
58310;SDS011;45001;52.218;5.154;2022-10-17T07:15:39;3.10;;;2.35;;
58310;SDS011;45001;52.218;5.154;2022-10-17T07:18:05;4.55;;;1.90;;
58310;SDS011;45001;52.218;5.154;2022-10-17T07:20:30;3.25;;;2.05;;
58310;SDS011;45001;52.218;5.154;2022-10-17T07:22:55;3.80;;;1.90;;
58310;SDS011;45001;52.218;5.154;2022-10-17T07:25:21;2.28;;;1.80;;
58310;SDS011;45001;52.218;5.154;2022-10-17T07:27:47;4.07;;;2.13;;
58310;SDS011;45001;52.218;5.154;2022-10-17T07:30:13;4.10;;;2.03;;
58310;SDS011;45001;52.218;5.154;2022-10-17T07:32:39;3.78;;;2.05;;
58310;SDS011;45001;52.218;5.154;2022-10-17T07:35:04;5.63;;;2.10;;
58310;SDS011;45001;52.218;5.154;2022-10-17T07:37:30;3.53;;;2.00;;
58310;SDS011;45001;52.218;5.154;2022-10-17T07:39:55;3.42;;;1.70;;
58310;SDS011;45001;52.218;5.154;2022-10-17T07:42:21;2.42;;;1.58;;
58310;SDS011;45001;52.218;5.154;2022-10-17T07:44:47;2.92;;;1.73;;
58310;SDS011;45001;52.218;5.154;2022-10-17T07:47:12;2.22;;;1.90;;
58310;SDS011;45001;52.218;5.154;2022-10-17T07:49:37;3.13;;;1.80;;
58310;SDS011;45001;52.218;5.154;2022-10-17T07:52:17;3.28;;;2.00;;
58310;SDS011;45001;52.218;5.154;2022-10-17T07:54:42;3.17;;;2.00;;
58310;SDS011;45001;52.218;5.154;2022-10-17T07:57:08;4.50;;;2.20;;
58310;SDS011;45001;52.218;5.154;2022-10-17T07:59:33;4.10;;;1.85;;
58310;SDS011;45001;52.218;5.154;2022-10-17T08:02:00;3.35;;;2.20;;
58310;SDS011;45001;52.218;5.154;2022-10-17T08:04:26;3.20;;;1.90;;
58310;SDS011;45001;52.218;5.154;2022-10-17T08:06:52;3.05;;;1.80;;
58310;SDS011;45001;52.218;5.154;2022-10-17T08:09:17;4.78;;;1.75;;
58310;SDS011;45001;52.218;5.154;2022-10-17T08:11:43;3.70;;;1.98;;
58310;SDS011;45001;52.218;5.154;2022-10-17T08:14:09;3.03;;;1.63;;
58310;SDS011;45001;52.218;5.154;2022-10-17T08:16:39;2.35;;;1.80;;
58310;SDS011;45001;52.218;5.154;2022-10-17T08:19:04;3.22;;;1.92;;
58310;SDS011;45001;52.218;5.154;2022-10-17T08:21:30;2.60;;;1.80;;
58310;SDS011;45001;52.218;5.154;2022-10-17T08:23:57;4.25;;;1.95;;
58310;SDS011;45001;52.218;5.154;2022-10-17T08:26:23;2.42;;;1.98;;
58310;SDS011;45001;52.218;5.154;2022-10-17T08:28:48;2.95;;;1.90;;
58310;SDS011;45001;52.218;5.154;2022-10-17T08:31:14;3.10;;;2.00;;
58310;SDS011;45001;52.218;5.154;2022-10-17T08:33:44;2.88;;;1.98;;
58310;SDS011;45001;52.218;5.154;2022-10-17T08:36:12;2.80;;;1.80;;
58310;SDS011;45001;52.218;5.154;2022-10-17T08:38:38;3.83;;;2.00;;
58310;SDS011;45001;52.218;5.154;2022-10-17T08:41:11;4.78;;;2.45;;
58310;SDS011;45001;52.218;5.154;2022-10-17T08:43:43;3.30;;;2.00;;
58310;SDS011;45001;52.218;5.154;2022-10-17T08:46:16;3.10;;;2.10;;
58310;SDS011;45001;52.218;5.154;2022-10-17T08:48:43;3.08;;;2.05;;
58310;SDS011;45001;52.218;5.154;2022-10-17T08:51:15;4.80;;;2.20;;
58310;SDS011;45001;52.218;5.154;2022-10-17T08:53:53;3.65;;;2.00;;
58310;SDS011;45001;52.218;5.154;2022-10-17T08:56:26;2.28;;;1.90;;
58310;SDS011;45001;52.218;5.154;2022-10-17T08:59:11;3.22;;;2.10;;
58310;SDS011;45001;52.218;5.154;2022-10-17T09:07:16;3.72;;;2.10;;
58310;SDS011;45001;52.218;5.154;2022-10-17T09:10:02;2.35;;;2.00;;
58310;SDS011;45001;52.218;5.154;2022-10-17T09:15:42;3.88;;;2.10;;
58310;SDS011;45001;52.218;5.154;2022-10-17T09:20:54;2.67;;;1.88;;
58310;SDS011;45001;52.218;5.154;2022-10-17T09:23:27;2.25;;;1.90;;
58310;SDS011;45001;52.218;5.154;2022-10-17T09:26:11;2.80;;;1.92;;
58310;SDS011;45001;52.218;5.154;2022-10-17T09:28:38;4.70;;;1.90;;
58310;SDS011;45001;52.218;5.154;2022-10-17T09:33:51;3.05;;;1.77;;
58310;SDS011;45001;52.218;5.154;2022-10-17T09:36:23;2.50;;;1.92;;
58310;SDS011;45001;52.218;5.154;2022-10-17T09:38:53;2.28;;;1.75;;
58310;SDS011;45001;52.218;5.154;2022-10-17T09:43:55;2.80;;;1.83;;
58310;SDS011;45001;52.218;5.154;2022-10-17T09:46:31;2.53;;;1.55;;
58310;SDS011;45001;52.218;5.154;2022-10-17T09:49:02;2.25;;;1.83;;
58310;SDS011;45001;52.218;5.154;2022-10-17T09:51:33;3.00;;;1.83;;
58310;SDS011;45001;52.218;5.154;2022-10-17T09:54:02;2.63;;;1.77;;
58310;SDS011;45001;52.218;5.154;2022-10-17T09:56:52;3.25;;;2.20;;
58310;SDS011;45001;52.218;5.154;2022-10-17T09:59:38;2.92;;;1.90;;
58310;SDS011;45001;52.218;5.154;2022-10-17T10:02:13;2.33;;;1.80;;
58310;SDS011;45001;52.218;5.154;2022-10-17T10:04:50;2.40;;;1.95;;
58310;SDS011;45001;52.218;5.154;2022-10-17T10:07:15;3.38;;;2.22;;
58310;SDS011;45001;52.218;5.154;2022-10-17T10:09:44;2.53;;;2.10;;
58310;SDS011;45001;52.218;5.154;2022-10-17T10:12:20;2.85;;;1.85;;
58310;SDS011;45001;52.218;5.154;2022-10-17T10:14:56;3.53;;;2.00;;
58310;SDS011;45001;52.218;5.154;2022-10-17T10:17:38;5.28;;;2.13;;
58310;SDS011;45001;52.218;5.154;2022-10-17T10:23:03;2.83;;;1.98;;
58310;SDS011;45001;52.218;5.154;2022-10-17T10:25:29;2.45;;;1.95;;
58310;SDS011;45001;52.218;5.154;2022-10-17T10:27:55;3.38;;;2.30;;
58310;SDS011;45001;52.218;5.154;2022-10-17T10:30:22;5.00;;;2.40;;
58310;SDS011;45001;52.218;5.154;2022-10-17T10:32:51;2.97;;;1.80;;
58310;SDS011;45001;52.218;5.154;2022-10-17T10:35:21;3.47;;;1.83;;
58310;SDS011;45001;52.218;5.154;2022-10-17T10:37:53;3.60;;;2.20;;
58310;SDS011;45001;52.218;5.154;2022-10-17T10:40:25;4.03;;;2.13;;
58310;SDS011;45001;52.218;5.154;2022-10-17T10:42:55;2.83;;;2.20;;
58310;SDS011;45001;52.218;5.154;2022-10-17T10:48:00;3.55;;;1.90;;
58310;SDS011;45001;52.218;5.154;2022-10-17T10:56:13;3.22;;;2.10;;
58310;SDS011;45001;52.218;5.154;2022-10-17T11:01:19;3.00;;;1.88;;
58310;SDS011;45001;52.218;5.154;2022-10-17T11:03:52;2.70;;;2.17;;
58310;SDS011;45001;52.218;5.154;2022-10-17T11:06:26;3.17;;;1.90;;
58310;SDS011;45001;52.218;5.154;2022-10-17T11:11:42;3.60;;;1.70;;
58310;SDS011;45001;52.218;5.154;2022-10-17T11:14:13;3.08;;;1.88;;
58310;SDS011;45001;52.218;5.154;2022-10-17T11:16:50;2.97;;;2.10;;
58310;SDS011;45001;52.218;5.154;2022-10-17T11:19:36;3.33;;;2.13;;
58310;SDS011;45001;52.218;5.154;2022-10-17T11:22:14;4.00;;;1.98;;
58310;SDS011;45001;52.218;5.154;2022-10-17T11:24:53;2.70;;;2.00;;
58310;SDS011;45001;52.218;5.154;2022-10-17T11:27:28;2.30;;;1.77;;
58310;SDS011;45001;52.218;5.154;2022-10-17T11:29:54;4.32;;;2.13;;
58310;SDS011;45001;52.218;5.154;2022-10-17T11:32:34;2.85;;;1.98;;
58310;SDS011;45001;52.218;5.154;2022-10-17T11:35:46;3.38;;;1.80;;
58310;SDS011;45001;52.218;5.154;2022-10-17T11:40:35;2.05;;;1.70;;
58310;SDS011;45001;52.218;5.154;2022-10-17T11:43:09;4.15;;;2.22;;
58310;SDS011;45001;52.218;5.154;2022-10-17T11:45:43;3.17;;;1.95;;
58310;SDS011;45001;52.218;5.154;2022-10-17T11:48:16;3.40;;;1.83;;
58310;SDS011;45001;52.218;5.154;2022-10-17T11:50:47;3.88;;;1.80;;
58310;SDS011;45001;52.218;5.154;2022-10-17T11:53:17;3.15;;;1.70;;
58310;SDS011;45001;52.218;5.154;2022-10-17T11:55:46;3.92;;;1.90;;
58310;SDS011;45001;52.218;5.154;2022-10-17T12:01:24;3.13;;;1.80;;
58310;SDS011;45001;52.218;5.154;2022-10-17T12:07:07;4.90;;;1.95;;
58310;SDS011;45001;52.218;5.154;2022-10-17T12:09:58;2.05;;;1.65;;
58310;SDS011;45001;52.218;5.154;2022-10-17T12:12:46;3.10;;;1.92;;
58310;SDS011;45001;52.218;5.154;2022-10-17T12:18:22;2.33;;;1.55;;
58310;SDS011;45001;52.218;5.154;2022-10-17T12:20:41;4.78;;;1.98;;
58310;SDS011;45001;52.218;5.154;2022-10-17T12:25:35;3.78;;;1.90;;
58310;SDS011;45001;52.218;5.154;2022-10-17T12:28:13;1.85;;;1.55;;
58310;SDS011;45001;52.218;5.154;2022-10-17T12:30:51;2.80;;;1.80;;
58310;SDS011;45001;52.218;5.154;2022-10-17T12:33:19;3.35;;;1.50;;
58310;SDS011;45001;52.218;5.154;2022-10-17T12:38:36;2.63;;;1.63;;
58310;SDS011;45001;52.218;5.154;2022-10-17T12:41:01;2.22;;;1.60;;
58310;SDS011;45001;52.218;5.154;2022-10-17T12:45:54;2.90;;;1.70;;
58310;SDS011;45001;52.218;5.154;2022-10-17T12:56:33;3.10;;;1.88;;
58310;SDS011;45001;52.218;5.154;2022-10-17T12:59:05;2.25;;;1.70;;
58310;SDS011;45001;52.218;5.154;2022-10-17T13:01:36;2.60;;;1.70;;
58310;SDS011;45001;52.218;5.154;2022-10-17T13:04:03;3.03;;;2.00;;
58310;SDS011;45001;52.218;5.154;2022-10-17T13:06:32;1.92;;;1.60;;
58310;SDS011;45001;52.218;5.154;2022-10-17T13:11:41;2.70;;;1.50;;
58310;SDS011;45001;52.218;5.154;2022-10-17T13:14:11;3.25;;;1.67;;
58310;SDS011;45001;52.218;5.154;2022-10-17T13:16:42;1.55;;;1.30;;
58310;SDS011;45001;52.218;5.154;2022-10-17T13:19:20;2.40;;;1.60;;
58310;SDS011;45001;52.218;5.154;2022-10-17T13:21:48;2.53;;;1.50;;
58310;SDS011;45001;52.218;5.154;2022-10-17T13:24:41;1.92;;;1.45;;
58310;SDS011;45001;52.218;5.154;2022-10-17T13:27:22;2.50;;;1.70;;
58310;SDS011;45001;52.218;5.154;2022-10-17T13:29:55;3.13;;;1.60;;
58310;SDS011;45001;52.218;5.154;2022-10-17T13:32:22;2.85;;;1.48;;
58310;SDS011;45001;52.218;5.154;2022-10-17T13:37:54;2.08;;;1.40;;
58310;SDS011;45001;52.218;5.154;2022-10-17T13:40:24;3.13;;;1.63;;
58310;SDS011;45001;52.218;5.154;2022-10-17T13:42:51;2.60;;;1.60;;
58310;SDS011;45001;52.218;5.154;2022-10-17T13:45:29;1.75;;;1.40;;
58310;SDS011;45001;52.218;5.154;2022-10-17T13:48:04;3.55;;;1.50;;
58310;SDS011;45001;52.218;5.154;2022-10-17T13:50:40;2.13;;;1.50;;
58310;SDS011;45001;52.218;5.154;2022-10-17T13:55:32;1.92;;;1.55;;
58310;SDS011;45001;52.218;5.154;2022-10-17T13:58:15;1.98;;;1.48;;
58310;SDS011;45001;52.218;5.154;2022-10-17T14:00:42;2.10;;;1.40;;
58310;SDS011;45001;52.218;5.154;2022-10-17T14:03:09;2.03;;;1.30;;
58310;SDS011;45001;52.218;5.154;2022-10-17T14:05:35;2.00;;;1.38;;
58310;SDS011;45001;52.218;5.154;2022-10-17T14:08:26;5.18;;;1.60;;
58310;SDS011;45001;52.218;5.154;2022-10-17T14:10:52;4.22;;;1.70;;
58310;SDS011;45001;52.218;5.154;2022-10-17T14:13:21;3.63;;;1.50;;
58310;SDS011;45001;52.218;5.154;2022-10-17T14:15:49;4.03;;;1.60;;
58310;SDS011;45001;52.218;5.154;2022-10-17T14:18:18;4.95;;;1.70;;
58310;SDS011;45001;52.218;5.154;2022-10-17T14:20:45;3.88;;;1.80;;
58310;SDS011;45001;52.218;5.154;2022-10-17T14:26:18;7.18;;;2.10;;
58310;SDS011;45001;52.218;5.154;2022-10-17T14:29:01;3.38;;;1.75;;
58310;SDS011;45001;52.218;5.154;2022-10-17T14:31:30;5.30;;;1.92;;
58310;SDS011;45001;52.218;5.154;2022-10-17T14:33:57;3.22;;;1.70;;
58310;SDS011;45001;52.218;5.154;2022-10-17T14:36:29;3.35;;;1.95;;
58310;SDS011;45001;52.218;5.154;2022-10-17T14:38:57;6.70;;;1.85;;
58310;SDS011;45001;52.218;5.154;2022-10-17T14:41:26;3.28;;;1.50;;
58310;SDS011;45001;52.218;5.154;2022-10-17T14:44:06;4.43;;;1.60;;
58310;SDS011;45001;52.218;5.154;2022-10-17T14:46:42;6.63;;;2.17;;
58310;SDS011;45001;52.218;5.154;2022-10-17T14:54:39;3.17;;;1.58;;
58310;SDS011;45001;52.218;5.154;2022-10-17T14:57:13;2.72;;;1.63;;
58310;SDS011;45001;52.218;5.154;2022-10-17T14:59:42;4.57;;;1.73;;
58310;SDS011;45001;52.218;5.154;2022-10-17T15:02:08;4.25;;;1.60;;
58310;SDS011;45001;52.218;5.154;2022-10-17T15:04:34;3.10;;;1.63;;
58310;SDS011;45001;52.218;5.154;2022-10-17T15:06:59;3.33;;;1.60;;
58310;SDS011;45001;52.218;5.154;2022-10-17T15:09:25;3.25;;;1.65;;
58310;SDS011;45001;52.218;5.154;2022-10-17T15:11:53;2.53;;;1.33;;
58310;SDS011;45001;52.218;5.154;2022-10-17T15:14:19;2.28;;;1.65;;
58310;SDS011;45001;52.218;5.154;2022-10-17T15:16:44;2.85;;;1.48;;
58310;SDS011;45001;52.218;5.154;2022-10-17T15:19:10;3.70;;;1.63;;
58310;SDS011;45001;52.218;5.154;2022-10-17T15:21:37;5.22;;;1.75;;
58310;SDS011;45001;52.218;5.154;2022-10-17T15:24:03;2.65;;;1.85;;
58310;SDS011;45001;52.218;5.154;2022-10-17T15:26:29;2.15;;;1.67;;
58310;SDS011;45001;52.218;5.154;2022-10-17T15:28:57;6.90;;;2.00;;
58310;SDS011;45001;52.218;5.154;2022-10-17T15:31:23;2.58;;;1.67;;
58310;SDS011;45001;52.218;5.154;2022-10-17T15:33:50;3.83;;;1.90;;
58310;SDS011;45001;52.218;5.154;2022-10-17T15:36:25;2.65;;;1.55;;
58310;SDS011;45001;52.218;5.154;2022-10-17T15:38:54;3.58;;;1.90;;
58310;SDS011;45001;52.218;5.154;2022-10-17T15:41:25;3.03;;;1.80;;
58310;SDS011;45001;52.218;5.154;2022-10-17T15:43:52;2.65;;;1.40;;
58310;SDS011;45001;52.218;5.154;2022-10-17T15:46:19;3.90;;;1.95;;
58310;SDS011;45001;52.218;5.154;2022-10-17T15:48:46;3.17;;;1.67;;
58310;SDS011;45001;52.218;5.154;2022-10-17T15:51:12;3.22;;;1.92;;
58310;SDS011;45001;52.218;5.154;2022-10-17T15:53:37;3.03;;;2.03;;
58310;SDS011;45001;52.218;5.154;2022-10-17T15:56:03;2.67;;;1.60;;
58310;SDS011;45001;52.218;5.154;2022-10-17T15:58:33;2.60;;;1.73;;
58310;SDS011;45001;52.218;5.154;2022-10-17T16:01:01;1.80;;;1.50;;
58310;SDS011;45001;52.218;5.154;2022-10-17T16:03:27;2.83;;;1.60;;
58310;SDS011;45001;52.218;5.154;2022-10-17T16:05:54;2.17;;;1.40;;
58310;SDS011;45001;52.218;5.154;2022-10-17T16:08:19;2.58;;;1.92;;
58310;SDS011;45001;52.218;5.154;2022-10-17T16:10:45;3.50;;;1.50;;
58310;SDS011;45001;52.218;5.154;2022-10-17T16:13:16;2.58;;;1.55;;
58310;SDS011;45001;52.218;5.154;2022-10-17T16:15:44;3.22;;;1.75;;
58310;SDS011;45001;52.218;5.154;2022-10-17T16:18:11;3.30;;;1.65;;
58310;SDS011;45001;52.218;5.154;2022-10-17T16:20:37;2.97;;;1.70;;
58310;SDS011;45001;52.218;5.154;2022-10-17T16:23:03;2.38;;;1.63;;
58310;SDS011;45001;52.218;5.154;2022-10-17T16:25:29;2.35;;;1.65;;
58310;SDS011;45001;52.218;5.154;2022-10-17T16:27:57;2.78;;;1.80;;
58310;SDS011;45001;52.218;5.154;2022-10-17T16:30:24;2.30;;;1.70;;
58310;SDS011;45001;52.218;5.154;2022-10-17T16:32:51;3.47;;;2.00;;
58310;SDS011;45001;52.218;5.154;2022-10-17T16:35:27;2.70;;;1.60;;
58310;SDS011;45001;52.218;5.154;2022-10-17T16:37:53;3.15;;;1.52;;
58310;SDS011;45001;52.218;5.154;2022-10-17T16:40:20;2.53;;;1.63;;
58310;SDS011;45001;52.218;5.154;2022-10-17T16:42:45;2.90;;;1.60;;
58310;SDS011;45001;52.218;5.154;2022-10-17T16:45:15;3.03;;;1.88;;